sensor_id;sensor_type;location;lat;lon;timestamp;pressure;altitude;pressure_sealevel;temperature;humidity
70909;BME280;58554;52.006;5.926;2023-05-24T00:00:45;101623.47;;;12.21;51.04
70909;BME280;58554;52.006;5.926;2023-05-24T00:03:14;101619.06;;;12.20;51.07
70909;BME280;58554;52.006;5.926;2023-05-24T00:05:40;101612.13;;;12.18;51.17
70909;BME280;58554;52.006;5.926;2023-05-24T00:08:07;101605.19;;;12.15;51.27
70909;BME280;58554;52.006;5.926;2023-05-24T00:10:33;101607.91;;;12.13;51.44
70909;BME280;58554;52.006;5.926;2023-05-24T00:13:00;101605.34;;;12.12;51.35
70909;BME280;58554;52.006;5.926;2023-05-24T00:15:26;101608.94;;;12.11;51.29
70909;BME280;58554;52.006;5.926;2023-05-24T00:17:53;101605.50;;;12.09;51.40
70909;BME280;58554;52.006;5.926;2023-05-24T00:20:22;101599.50;;;12.05;51.50
70909;BME280;58554;52.006;5.926;2023-05-24T00:22:48;101598.72;;;12.03;51.72
70909;BME280;58554;52.006;5.926;2023-05-24T00:25:15;101595.44;;;11.98;51.42
70909;BME280;58554;52.006;5.926;2023-05-24T00:27:41;101595.59;;;11.95;51.71
70909;BME280;58554;52.006;5.926;2023-05-24T00:30:08;101590.53;;;11.90;51.71
70909;BME280;58554;52.006;5.926;2023-05-24T00:32:35;101585.28;;;11.89;51.72
70909;BME280;58554;52.006;5.926;2023-05-24T00:35:01;101579.38;;;11.84;51.79
70909;BME280;58554;52.006;5.926;2023-05-24T00:37:30;101572.41;;;11.81;52.00
70909;BME280;58554;52.006;5.926;2023-05-24T00:39:57;101573.53;;;11.77;52.06
70909;BME280;58554;52.006;5.926;2023-05-24T00:42:23;101583.25;;;11.76;51.96
70909;BME280;58554;52.006;5.926;2023-05-24T00:44:50;101579.91;;;11.73;52.16
70909;BME280;58554;52.006;5.926;2023-05-24T00:47:16;101580.88;;;11.70;51.86
70909;BME280;58554;52.006;5.926;2023-05-24T00:49:43;101582.91;;;11.65;51.99
70909;BME280;58554;52.006;5.926;2023-05-24T00:52:10;101578.84;;;11.58;52.03
70909;BME280;58554;52.006;5.926;2023-05-24T00:54:39;101577.38;;;11.52;51.94
70909;BME280;58554;52.006;5.926;2023-05-24T00:57:06;101576.66;;;11.49;52.20
70909;BME280;58554;52.006;5.926;2023-05-24T00:59:32;101575.88;;;11.47;52.39
70909;BME280;58554;52.006;5.926;2023-05-24T01:01:59;101563.56;;;11.46;52.43
70909;BME280;58554;52.006;5.926;2023-05-24T01:04:25;101567.97;;;11.45;52.70
70909;BME280;58554;52.006;5.926;2023-05-24T01:07:02;101568.16;;;11.42;52.56
70909;BME280;58554;52.006;5.926;2023-05-24T01:09:50;101561.06;;;11.43;53.02
70909;BME280;58554;52.006;5.926;2023-05-24T01:12:35;101572.50;;;11.43;52.69
70909;BME280;58554;52.006;5.926;2023-05-24T01:15:21;101568.16;;;11.42;52.73
70909;BME280;58554;52.006;5.926;2023-05-24T01:18:01;101573.50;;;11.41;52.67
70909;BME280;58554;52.006;5.926;2023-05-24T01:20:33;101570.94;;;11.39;52.72
70909;BME280;58554;52.006;5.926;2023-05-24T01:23:08;101569.34;;;11.35;52.80
70909;BME280;58554;52.006;5.926;2023-05-24T01:26:02;101571.16;;;11.34;53.04
70909;BME280;58554;52.006;5.926;2023-05-24T01:28:42;101573.88;;;11.33;52.95
70909;BME280;58554;52.006;5.926;2023-05-24T01:31:10;101567.94;;;11.28;52.58
70909;BME280;58554;52.006;5.926;2023-05-24T01:33:40;101569.81;;;11.26;52.81
70909;BME280;58554;52.006;5.926;2023-05-24T01:36:08;101575.16;;;11.24;53.15
70909;BME280;58554;52.006;5.926;2023-05-24T01:38:36;101569.94;;;11.23;53.03
70909;BME280;58554;52.006;5.926;2023-05-24T01:41:09;101571.78;;;11.21;53.13
70909;BME280;58554;52.006;5.926;2023-05-24T01:43:51;101576.25;;;11.20;53.28
70909;BME280;58554;52.006;5.926;2023-05-24T01:46:34;101572.81;;;11.18;53.33
70909;BME280;58554;52.006;5.926;2023-05-24T01:49:10;101575.44;;;11.18;53.27
70909;BME280;58554;52.006;5.926;2023-05-24T01:51:48;101580.53;;;11.23;53.36
70909;BME280;58554;52.006;5.926;2023-05-24T01:54:22;101580.63;;;11.21;53.32
70909;BME280;58554;52.006;5.926;2023-05-24T01:56:52;101575.38;;;11.20;53.48
70909;BME280;58554;52.006;5.926;2023-05-24T01:59:25;101573.66;;;11.19;53.51
70909;BME280;58554;52.006;5.926;2023-05-24T02:01:55;101578.94;;;11.19;53.70
70909;BME280;58554;52.006;5.926;2023-05-24T02:04:23;101578.09;;;11.18;53.58
70909;BME280;58554;52.006;5.926;2023-05-24T02:06:50;101572.00;;;11.16;53.44
70909;BME280;58554;52.006;5.926;2023-05-24T02:09:17;101576.47;;;11.15;53.79
70909;BME280;58554;52.006;5.926;2023-05-24T02:11:43;101572.97;;;11.15;53.65
70909;BME280;58554;52.006;5.926;2023-05-24T02:14:10;101572.09;;;11.14;53.71
70909;BME280;58554;52.006;5.926;2023-05-24T02:16:39;101573.88;;;11.14;53.68
70909;BME280;58554;52.006;5.926;2023-05-24T02:19:06;101573.88;;;11.14;53.98
70909;BME280;58554;52.006;5.926;2023-05-24T02:21:32;101572.25;;;11.11;54.12
70909;BME280;58554;52.006;5.926;2023-05-24T02:23:59;101568.81;;;11.09;54.27
70909;BME280;58554;52.006;5.926;2023-05-24T02:26:25;101574.94;;;11.10;54.05
70909;BME280;58554;52.006;5.926;2023-05-24T02:28:52;101575.91;;;11.09;54.17
70909;BME280;58554;52.006;5.926;2023-05-24T02:31:18;101572.31;;;11.10;54.25
70909;BME280;58554;52.006;5.926;2023-05-24T02:33:47;101568.81;;;11.09;54.25
70909;BME280;58554;52.006;5.926;2023-05-24T02:36:14;101573.25;;;11.09;54.21
70909;BME280;58554;52.006;5.926;2023-05-24T02:38:40;101567.22;;;11.05;54.17
70909;BME280;58554;52.006;5.926;2023-05-24T02:41:07;101567.38;;;11.02;54.12
70909;BME280;58554;52.006;5.926;2023-05-24T02:43:33;101565.72;;;11.00;54.30
70909;BME280;58554;52.006;5.926;2023-05-24T02:46:00;101573.66;;;11.00;54.48
70909;BME280;58554;52.006;5.926;2023-05-24T02:48:26;101567.44;;;11.01;54.55
70909;BME280;58554;52.006;5.926;2023-05-24T02:50:55;101570.94;;;11.01;54.42
70909;BME280;58554;52.006;5.926;2023-05-24T02:53:22;101569.94;;;11.04;54.95
70909;BME280;58554;52.006;5.926;2023-05-24T02:55:48;101571.59;;;11.06;55.01
70909;BME280;58554;52.006;5.926;2023-05-24T02:58:15;101574.16;;;11.08;54.88
70909;BME280;58554;52.006;5.926;2023-05-24T03:00:41;101569.81;;;11.07;54.76
70909;BME280;58554;52.006;5.926;2023-05-24T03:03:08;101566.16;;;11.09;55.09
70909;BME280;58554;52.006;5.926;2023-05-24T03:05:34;101572.31;;;11.10;54.80
70909;BME280;58554;52.006;5.926;2023-05-24T03:08:04;101564.25;;;11.13;55.02
70909;BME280;58554;52.006;5.926;2023-05-24T03:10:31;101562.44;;;11.13;55.15
70909;BME280;58554;52.006;5.926;2023-05-24T03:12:57;101565.03;;;11.15;55.25
70909;BME280;58554;52.006;5.926;2023-05-24T03:15:24;101558.94;;;11.13;55.08
70909;BME280;58554;52.006;5.926;2023-05-24T03:17:51;101569.53;;;11.13;55.32
70909;BME280;58554;52.006;5.926;2023-05-24T03:20:17;101553.72;;;11.11;55.22
70909;BME280;58554;52.006;5.926;2023-05-24T03:22:44;101554.56;;;11.12;55.19
70909;BME280;58554;52.006;5.926;2023-05-24T03:25:13;101549.38;;;11.10;55.11
70909;BME280;58554;52.006;5.926;2023-05-24T03:27:39;101553.78;;;11.10;55.25
70909;BME280;58554;52.006;5.926;2023-05-24T03:30:08;101543.28;;;11.08;55.30
70909;BME280;58554;52.006;5.926;2023-05-24T03:32:35;101551.22;;;11.08;55.59
70909;BME280;58554;52.006;5.926;2023-05-24T03:35:01;101548.56;;;11.08;55.27
70909;BME280;58554;52.006;5.926;2023-05-24T03:37:28;101554.00;;;11.05;55.37
70909;BME280;58554;52.006;5.926;2023-05-24T03:39:54;101549.84;;;11.00;55.50
70909;BME280;58554;52.006;5.926;2023-05-24T03:42:23;101554.50;;;10.94;55.36
70909;BME280;58554;52.006;5.926;2023-05-24T03:44:50;101553.00;;;10.87;55.58
70909;BME280;58554;52.006;5.926;2023-05-24T03:47:16;101556.94;;;10.79;55.82
70909;BME280;58554;52.006;5.926;2023-05-24T03:49:43;101556.59;;;10.67;55.67
70909;BME280;58554;52.006;5.926;2023-05-24T03:52:09;101550.06;;;10.55;55.74
70909;BME280;58554;52.006;5.926;2023-05-24T03:54:35;101551.38;;;10.45;55.93
70909;BME280;58554;52.006;5.926;2023-05-24T03:57:02;101554.44;;;10.36;56.14
70909;BME280;58554;52.006;5.926;2023-05-24T03:59:32;101553.97;;;10.26;56.18
70909;BME280;58554;52.006;5.926;2023-05-24T04:01:59;101547.31;;;10.18;56.59
70909;BME280;58554;52.006;5.926;2023-05-24T04:04:25;101554.72;;;10.09;56.66
70909;BME280;58554;52.006;5.926;2023-05-24T04:06:52;101552.38;;;10.02;56.63
70909;BME280;58554;52.006;5.926;2023-05-24T04:09:20;101555.38;;;9.94;56.63
70909;BME280;58554;52.006;5.926;2023-05-24T04:11:48;101549.56;;;9.86;57.12
70909;BME280;58554;52.006;5.926;2023-05-24T04:14:14;101558.59;;;9.80;57.32
70909;BME280;58554;52.006;5.926;2023-05-24T04:16:44;101554.50;;;9.73;57.30
70909;BME280;58554;52.006;5.926;2023-05-24T04:19:10;101547.66;;;9.67;57.43
70909;BME280;58554;52.006;5.926;2023-05-24T04:21:37;101554.03;;;9.62;57.59
70909;BME280;58554;52.006;5.926;2023-05-24T04:24:04;101554.28;;;9.56;57.67
70909;BME280;58554;52.006;5.926;2023-05-24T04:26:31;101558.06;;;9.50;57.96
70909;BME280;58554;52.006;5.926;2023-05-24T04:28:59;101562.66;;;9.45;58.21
70909;BME280;58554;52.006;5.926;2023-05-24T04:31:25;101555.78;;;9.41;58.17
70909;BME280;58554;52.006;5.926;2023-05-24T04:33:55;101562.09;;;9.37;58.31
70909;BME280;58554;52.006;5.926;2023-05-24T04:36:22;101563.94;;;9.35;58.54
70909;BME280;58554;52.006;5.926;2023-05-24T04:38:48;101564.00;;;9.33;58.71
70909;BME280;58554;52.006;5.926;2023-05-24T04:41:15;101568.41;;;9.32;58.74
70909;BME280;58554;52.006;5.926;2023-05-24T04:43:41;101566.63;;;9.33;58.82
70909;BME280;58554;52.006;5.926;2023-05-24T04:46:08;101569.22;;;9.35;58.97
70909;BME280;58554;52.006;5.926;2023-05-24T04:48:34;101577.13;;;9.35;59.17
70909;BME280;58554;52.006;5.926;2023-05-24T04:51:04;101574.53;;;9.33;58.96
70909;BME280;58554;52.006;5.926;2023-05-24T04:53:30;101575.47;;;9.32;59.19
70909;BME280;58554;52.006;5.926;2023-05-24T04:55:57;101586.00;;;9.33;59.29
70909;BME280;58554;52.006;5.926;2023-05-24T04:58:23;101574.53;;;9.33;59.41
70909;BME280;58554;52.006;5.926;2023-05-24T05:00:50;101577.94;;;9.37;59.51
70909;BME280;58554;52.006;5.926;2023-05-24T05:03:16;101575.19;;;9.40;59.29
70909;BME280;58554;52.006;5.926;2023-05-24T05:05:43;101573.34;;;9.42;59.53
70909;BME280;58554;52.006;5.926;2023-05-24T05:08:12;101565.47;;;9.40;59.38
70909;BME280;58554;52.006;5.926;2023-05-24T05:10:38;101572.47;;;9.41;59.55
70909;BME280;58554;52.006;5.926;2023-05-24T05:13:05;101567.94;;;9.45;59.64
70909;BME280;58554;52.006;5.926;2023-05-24T05:15:31;101570.38;;;9.49;59.84
70909;BME280;58554;52.006;5.926;2023-05-24T05:17:58;101570.19;;;9.54;59.74
70909;BME280;58554;52.006;5.926;2023-05-24T05:20:24;101575.22;;;9.60;59.74
70909;BME280;58554;52.006;5.926;2023-05-24T05:22:51;101575.19;;;9.62;59.62
70909;BME280;58554;52.006;5.926;2023-05-24T05:25:20;101573.28;;;9.65;59.73
70909;BME280;58554;52.006;5.926;2023-05-24T05:27:47;101573.22;;;9.67;59.63
70909;BME280;58554;52.006;5.926;2023-05-24T05:30:15;101587.88;;;9.74;59.75
70909;BME280;58554;52.006;5.926;2023-05-24T05:32:41;101589.38;;;9.81;59.73
70909;BME280;58554;52.006;5.926;2023-05-24T05:35:08;101582.09;;;9.86;59.87
70909;BME280;58554;52.006;5.926;2023-05-24T05:37:35;101578.22;;;9.95;59.83
70909;BME280;58554;52.006;5.926;2023-05-24T05:40:01;101574.53;;;9.99;59.69
70909;BME280;58554;52.006;5.926;2023-05-24T05:42:30;101583.13;;;10.04;59.67
70909;BME280;58554;52.006;5.926;2023-05-24T05:44:57;101582.06;;;10.08;59.53
70909;BME280;58554;52.006;5.926;2023-05-24T05:47:23;101585.38;;;10.13;59.90
70909;BME280;58554;52.006;5.926;2023-05-24T05:49:50;101585.16;;;10.18;59.62
70909;BME280;58554;52.006;5.926;2023-05-24T05:52:16;101587.69;;;10.21;59.48
70909;BME280;58554;52.006;5.926;2023-05-24T05:54:43;101591.03;;;10.25;59.59
70909;BME280;58554;52.006;5.926;2023-05-24T05:57:09;101585.50;;;10.31;59.49
70909;BME280;58554;52.006;5.926;2023-05-24T05:59:38;101578.25;;;10.36;59.42
70909;BME280;58554;52.006;5.926;2023-05-24T06:02:05;101589.41;;;10.43;59.44
70909;BME280;58554;52.006;5.926;2023-05-24T06:04:32;101593.56;;;10.48;59.54
70909;BME280;58554;52.006;5.926;2023-05-24T06:06:58;101596.81;;;10.55;59.70
70909;BME280;58554;52.006;5.926;2023-05-24T06:09:25;101598.34;;;10.61;59.58
70909;BME280;58554;52.006;5.926;2023-05-24T06:11:52;101594.41;;;10.69;59.73
70909;BME280;58554;52.006;5.926;2023-05-24T06:14:18;101594.94;;;10.78;59.34
70909;BME280;58554;52.006;5.926;2023-05-24T06:16:47;101584.06;;;10.84;59.65
70909;BME280;58554;52.006;5.926;2023-05-24T06:19:14;101596.97;;;10.91;59.49
70909;BME280;58554;52.006;5.926;2023-05-24T06:21:40;101594.81;;;11.00;59.63
70909;BME280;58554;52.006;5.926;2023-05-24T06:24:07;101603.72;;;11.18;59.56
70909;BME280;58554;52.006;5.926;2023-05-24T06:26:34;101608.22;;;11.34;59.33
70909;BME280;58554;52.006;5.926;2023-05-24T06:29:01;101615.59;;;11.47;59.28
70909;BME280;58554;52.006;5.926;2023-05-24T06:31:27;101607.28;;;11.54;59.06
70909;BME280;58554;52.006;5.926;2023-05-24T06:39:04;101615.09;;;12.11;58.66
70909;BME280;58554;52.006;5.926;2023-05-24T06:41:31;101618.84;;;12.25;58.45
70909;BME280;58554;52.006;5.926;2023-05-24T06:43:57;101616.53;;;12.36;58.50
70909;BME280;58554;52.006;5.926;2023-05-24T06:46:23;101618.81;;;12.44;58.03
70909;BME280;58554;52.006;5.926;2023-05-24T06:48:50;101624.72;;;12.49;58.11
70909;BME280;58554;52.006;5.926;2023-05-24T06:51:16;101612.94;;;12.54;58.13
70909;BME280;58554;52.006;5.926;2023-05-24T06:53:43;101617.94;;;12.61;57.95
70909;BME280;58554;52.006;5.926;2023-05-24T06:56:12;101618.59;;;12.64;57.97
70909;BME280;58554;52.006;5.926;2023-05-24T06:58:39;101614.72;;;12.71;57.95
70909;BME280;58554;52.006;5.926;2023-05-24T07:01:06;101616.50;;;12.71;57.85
70909;BME280;58554;52.006;5.926;2023-05-24T07:03:32;101619.31;;;12.68;57.41
70909;BME280;58554;52.006;5.926;2023-05-24T07:05:58;101620.34;;;12.65;57.80
70909;BME280;58554;52.006;5.926;2023-05-24T07:08:25;101618.38;;;12.69;57.78
70909;BME280;58554;52.006;5.926;2023-05-24T07:10:52;101625.06;;;12.76;57.73
70909;BME280;58554;52.006;5.926;2023-05-24T07:13:22;101626.44;;;12.83;57.92
70909;BME280;58554;52.006;5.926;2023-05-24T07:15:48;101627.16;;;12.87;57.55
70909;BME280;58554;52.006;5.926;2023-05-24T07:18:15;101621.91;;;12.85;57.96
70909;BME280;58554;52.006;5.926;2023-05-24T07:20:42;101627.06;;;12.88;57.89
70909;BME280;58554;52.006;5.926;2023-05-24T07:23:08;101626.81;;;12.93;57.90
70909;BME280;58554;52.006;5.926;2023-05-24T07:25:35;101631.09;;;12.95;57.77
70909;BME280;58554;52.006;5.926;2023-05-24T07:28:01;101637.31;;;12.96;57.71
70909;BME280;58554;52.006;5.926;2023-05-24T07:30:31;101629.41;;;12.94;57.55
70909;BME280;58554;52.006;5.926;2023-05-24T07:32:58;101621.44;;;12.94;57.55
70909;BME280;58554;52.006;5.926;2023-05-24T07:35:25;101629.84;;;13.03;57.74
70909;BME280;58554;52.006;5.926;2023-05-24T07:37:51;101630.97;;;13.14;57.82
70909;BME280;58554;52.006;5.926;2023-05-24T07:40:18;101631.00;;;13.30;57.63
70909;BME280;58554;52.006;5.926;2023-05-24T07:42:44;101617.63;;;13.48;57.31
70909;BME280;58554;52.006;5.926;2023-05-24T07:45:11;101624.78;;;13.63;56.89
70909;BME280;58554;52.006;5.926;2023-05-24T07:47:40;101612.50;;;13.76;56.65
70909;BME280;58554;52.006;5.926;2023-05-24T07:50:08;101602.78;;;13.91;56.33
70909;BME280;58554;52.006;5.926;2023-05-24T07:52:35;101608.06;;;14.07;56.24
70909;BME280;58554;52.006;5.926;2023-05-24T07:55:03;101605.38;;;14.23;55.92
70909;BME280;58554;52.006;5.926;2023-05-24T07:57:30;101599.59;;;14.45;56.11
70909;BME280;58554;52.006;5.926;2023-05-24T07:59:57;101596.16;;;14.73;55.71
70909;BME280;58554;52.006;5.926;2023-05-24T08:02:23;101604.41;;;14.97;55.10
70909;BME280;58554;52.006;5.926;2023-05-24T08:04:52;101603.09;;;15.05;54.34
70909;BME280;58554;52.006;5.926;2023-05-24T08:07:19;101589.28;;;15.12;54.43
70909;BME280;58554;52.006;5.926;2023-05-24T08:09:45;101594.41;;;15.30;54.28
70909;BME280;58554;52.006;5.926;2023-05-24T08:12:11;101596.34;;;15.55;54.42
70909;BME280;58554;52.006;5.926;2023-05-24T08:14:38;101588.75;;;15.76;53.36
70909;BME280;58554;52.006;5.926;2023-05-24T08:17:04;101590.31;;;15.93;52.82
70909;BME280;58554;52.006;5.926;2023-05-24T08:19:31;101595.50;;;16.09;53.01
70909;BME280;58554;52.006;5.926;2023-05-24T08:22:00;101589.50;;;16.18;52.61
70909;BME280;58554;52.006;5.926;2023-05-24T08:24:27;101592.84;;;16.22;52.10
70909;BME280;58554;52.006;5.926;2023-05-24T08:26:53;101596.69;;;16.17;51.63
70909;BME280;58554;52.006;5.926;2023-05-24T08:29:20;101595.94;;;16.15;51.58
70909;BME280;58554;52.006;5.926;2023-05-24T08:31:46;101602.09;;;16.16;51.57
70909;BME280;58554;52.006;5.926;2023-05-24T08:34:13;101597.84;;;16.13;51.39
70909;BME280;58554;52.006;5.926;2023-05-24T08:36:40;101589.28;;;16.08;51.41
70909;BME280;58554;52.006;5.926;2023-05-24T08:39:09;101597.91;;;15.99;51.33
70909;BME280;58554;52.006;5.926;2023-05-24T08:41:36;101595.66;;;15.93;51.34
70909;BME280;58554;52.006;5.926;2023-05-24T08:44:04;101596.63;;;15.92;51.70
70909;BME280;58554;52.006;5.926;2023-05-24T08:46:33;101597.56;;;15.91;51.57
70909;BME280;58554;52.006;5.926;2023-05-24T08:49:00;101599.16;;;15.93;51.30
70909;BME280;58554;52.006;5.926;2023-05-24T08:51:28;101600.88;;;15.94;51.34
70909;BME280;58554;52.006;5.926;2023-05-24T08:53:56;101600.13;;;15.92;51.01
70909;BME280;58554;52.006;5.926;2023-05-24T08:56:27;101594.16;;;15.89;51.01
70909;BME280;58554;52.006;5.926;2023-05-24T08:58:54;101591.28;;;15.92;51.20
70909;BME280;58554;52.006;5.926;2023-05-24T09:01:22;101595.47;;;15.96;50.56
70909;BME280;58554;52.006;5.926;2023-05-24T09:03:50;101595.16;;;16.01;50.52
70909;BME280;58554;52.006;5.926;2023-05-24T09:06:19;101591.22;;;16.06;50.52
70909;BME280;58554;52.006;5.926;2023-05-24T09:08:46;101596.34;;;16.09;50.38
70909;BME280;58554;52.006;5.926;2023-05-24T09:11:14;101590.25;;;16.07;50.30
70909;BME280;58554;52.006;5.926;2023-05-24T09:13:45;101594.31;;;16.00;50.17
70909;BME280;58554;52.006;5.926;2023-05-24T09:16:13;101600.66;;;15.97;50.20
70909;BME280;58554;52.006;5.926;2023-05-24T09:18:41;101591.63;;;16.00;50.02
70909;BME280;58554;52.006;5.926;2023-05-24T09:21:07;101590.34;;;16.06;49.96
70909;BME280;58554;52.006;5.926;2023-05-24T09:23:35;101602.19;;;16.14;49.98
70909;BME280;58554;52.006;5.926;2023-05-24T09:26:06;101593.78;;;16.20;49.58
70909;BME280;58554;52.006;5.926;2023-05-24T09:28:34;101599.88;;;16.23;49.55
70909;BME280;58554;52.006;5.926;2023-05-24T09:31:04;101597.94;;;16.25;49.54
70909;BME280;58554;52.006;5.926;2023-05-24T09:33:32;101604.25;;;16.24;49.26
70909;BME280;58554;52.006;5.926;2023-05-24T09:36:01;101600.00;;;16.21;49.33
70909;BME280;58554;52.006;5.926;2023-05-24T09:38:29;101608.00;;;16.21;49.45
70909;BME280;58554;52.006;5.926;2023-05-24T09:41:02;101600.84;;;16.22;49.24
70909;BME280;58554;52.006;5.926;2023-05-24T09:43:31;101606.84;;;16.25;49.17
70909;BME280;58554;52.006;5.926;2023-05-24T09:46:04;101608.13;;;16.32;48.88
70909;BME280;58554;52.006;5.926;2023-05-24T09:48:30;101600.66;;;16.37;48.87
70909;BME280;58554;52.006;5.926;2023-05-24T09:51:03;101604.38;;;16.48;48.73
70909;BME280;58554;52.006;5.926;2023-05-24T09:53:31;101607.50;;;16.54;48.75
70909;BME280;58554;52.006;5.926;2023-05-24T09:56:02;101606.22;;;16.60;48.72
70909;BME280;58554;52.006;5.926;2023-05-24T09:58:30;101602.38;;;16.64;48.68
70909;BME280;58554;52.006;5.926;2023-05-24T10:01:07;101601.63;;;16.62;48.34
70909;BME280;58554;52.006;5.926;2023-05-24T10:03:35;101600.03;;;16.59;48.36
70909;BME280;58554;52.006;5.926;2023-05-24T10:06:03;101601.00;;;16.58;48.53
70909;BME280;58554;52.006;5.926;2023-05-24T10:08:32;101600.34;;;16.55;48.20
70909;BME280;58554;52.006;5.926;2023-05-24T10:11:01;101604.19;;;16.51;48.45
70909;BME280;58554;52.006;5.926;2023-05-24T10:13:29;101604.50;;;16.46;48.17
70909;BME280;58554;52.006;5.926;2023-05-24T10:15:57;101606.28;;;16.33;48.15
70909;BME280;58554;52.006;5.926;2023-05-24T10:18:26;101602.53;;;16.23;48.30
70909;BME280;58554;52.006;5.926;2023-05-24T10:20:54;101604.88;;;16.14;48.32
70909;BME280;58554;52.006;5.926;2023-05-24T10:23:22;101604.44;;;16.08;48.21
70909;BME280;58554;52.006;5.926;2023-05-24T10:25:56;101608.16;;;16.05;48.50
70909;BME280;58554;52.006;5.926;2023-05-24T10:28:29;101613.28;;;16.08;48.51
70909;BME280;58554;52.006;5.926;2023-05-24T10:31:02;101609.03;;;16.18;48.59
70909;BME280;58554;52.006;5.926;2023-05-24T10:33:37;101611.09;;;16.28;48.58
70909;BME280;58554;52.006;5.926;2023-05-24T10:36:07;101605.88;;;16.39;48.48
70909;BME280;58554;52.006;5.926;2023-05-24T10:38:37;101609.53;;;16.51;48.47
70909;BME280;58554;52.006;5.926;2023-05-24T10:41:04;101611.34;;;16.63;48.27
70909;BME280;58554;52.006;5.926;2023-05-24T10:43:31;101599.69;;;16.77;48.18
70909;BME280;58554;52.006;5.926;2023-05-24T10:45:58;101607.41;;;16.94;48.01
70909;BME280;58554;52.006;5.926;2023-05-24T10:48:37;101596.81;;;17.06;47.55
70909;BME280;58554;52.006;5.926;2023-05-24T10:51:29;101608.53;;;17.16;47.27
70909;BME280;58554;52.006;5.926;2023-05-24T10:54:09;101582.41;;;17.32;47.02
70909;BME280;58554;52.006;5.926;2023-05-24T10:56:39;101585.22;;;17.55;47.38
70909;BME280;58554;52.006;5.926;2023-05-24T10:59:07;101574.97;;;17.73;47.07
70909;BME280;58554;52.006;5.926;2023-05-24T11:01:33;101578.69;;;17.83;46.92
70909;BME280;58554;52.006;5.926;2023-05-24T11:04:11;101573.00;;;17.88;46.49
70909;BME280;58554;52.006;5.926;2023-05-24T11:06:45;101571.69;;;17.93;46.45
70909;BME280;58554;52.006;5.926;2023-05-24T11:09:13;101572.69;;;18.04;46.56
70909;BME280;58554;52.006;5.926;2023-05-24T11:11:43;101570.91;;;18.15;46.19
70909;BME280;58554;52.006;5.926;2023-05-24T11:14:11;101576.41;;;18.25;46.23
70909;BME280;58554;52.006;5.926;2023-05-24T11:16:48;101578.38;;;18.34;45.60
70909;BME280;58554;52.006;5.926;2023-05-24T11:19:22;101575.94;;;18.31;45.55
70909;BME280;58554;52.006;5.926;2023-05-24T11:21:55;101581.03;;;18.23;45.43
70909;BME280;58554;52.006;5.926;2023-05-24T11:24:23;101575.28;;;18.16;45.67
70909;BME280;58554;52.006;5.926;2023-05-24T11:26:51;101580.63;;;18.16;45.87
70909;BME280;58554;52.006;5.926;2023-05-24T11:29:18;101569.31;;;18.13;45.58
70909;BME280;58554;52.006;5.926;2023-05-24T11:31:49;101573.59;;;18.15;45.29
70909;BME280;58554;52.006;5.926;2023-05-24T11:34:17;101565.94;;;18.22;45.56
70909;BME280;58554;52.006;5.926;2023-05-24T11:36:47;101559.88;;;18.31;45.44
70909;BME280;58554;52.006;5.926;2023-05-24T11:39:15;101570.34;;;18.34;45.35
70909;BME280;58554;52.006;5.926;2023-05-24T11:41:42;101563.41;;;18.43;45.28
70909;BME280;58554;52.006;5.926;2023-05-24T11:44:10;101573.41;;;18.52;45.18
70909;BME280;58554;52.006;5.926;2023-05-24T11:46:38;101556.38;;;18.65;45.30
70909;BME280;58554;52.006;5.926;2023-05-24T11:49:11;101570.03;;;18.73;45.29
70909;BME280;58554;52.006;5.926;2023-05-24T11:51:42;101570.44;;;18.79;44.80
70909;BME280;58554;52.006;5.926;2023-05-24T11:54:08;101566.25;;;18.87;45.14
70909;BME280;58554;52.006;5.926;2023-05-24T11:56:35;101561.25;;;18.93;44.69
70909;BME280;58554;52.006;5.926;2023-05-24T11:59:08;101558.25;;;18.98;44.31
70909;BME280;58554;52.006;5.926;2023-05-24T12:01:40;101570.91;;;18.96;44.60
70909;BME280;58554;52.006;5.926;2023-05-24T12:04:07;101561.03;;;18.96;44.75
70909;BME280;58554;52.006;5.926;2023-05-24T12:06:35;101565.91;;;19.02;44.56
70909;BME280;58554;52.006;5.926;2023-05-24T12:09:06;101559.78;;;19.12;44.60
70909;BME280;58554;52.006;5.926;2023-05-24T12:11:34;101564.91;;;19.15;44.29
70909;BME280;58554;52.006;5.926;2023-05-24T12:14:03;101561.84;;;19.19;44.28
70909;BME280;58554;52.006;5.926;2023-05-24T12:16:30;101565.75;;;19.15;44.35
70909;BME280;58554;52.006;5.926;2023-05-24T12:18:57;101561.72;;;19.10;43.94
70909;BME280;58554;52.006;5.926;2023-05-24T12:21:23;101556.97;;;19.02;43.85
70909;BME280;58554;52.006;5.926;2023-05-24T12:23:50;101560.19;;;18.96;44.03
70909;BME280;58554;52.006;5.926;2023-05-24T12:26:20;101558.47;;;18.95;44.40
70909;BME280;58554;52.006;5.926;2023-05-24T12:28:52;101567.50;;;18.94;44.32
70909;BME280;58554;52.006;5.926;2023-05-24T12:31:19;101550.91;;;18.89;44.32
70909;BME280;58554;52.006;5.926;2023-05-24T12:33:46;101547.41;;;18.88;44.32
70909;BME280;58554;52.006;5.926;2023-05-24T12:36:13;101544.56;;;19.01;44.48
70909;BME280;58554;52.006;5.926;2023-05-24T12:38:39;101546.25;;;19.13;44.49
70909;BME280;58554;52.006;5.926;2023-05-24T12:41:05;101540.75;;;19.26;44.16
70909;BME280;58554;52.006;5.926;2023-05-24T12:43:35;101547.44;;;19.32;44.12
70909;BME280;58554;52.006;5.926;2023-05-24T12:46:02;101542.47;;;19.27;44.04
70909;BME280;58554;52.006;5.926;2023-05-24T12:48:29;101553.09;;;19.17;43.92
70909;BME280;58554;52.006;5.926;2023-05-24T12:50:55;101545.66;;;19.10;44.15
70909;BME280;58554;52.006;5.926;2023-05-24T12:53:22;101547.59;;;19.08;43.98
70909;BME280;58554;52.006;5.926;2023-05-24T12:55:48;101537.00;;;19.06;44.14
70909;BME280;58554;52.006;5.926;2023-05-24T12:58:15;101542.47;;;19.16;43.99
70909;BME280;58554;52.006;5.926;2023-05-24T13:00:44;101546.09;;;19.26;43.91